Time;durP1;ratioP1;P1;durP2;ratioP2;P2;SDS_P1;SDS_P2;PMS_P1;PMS_P2;Temp;Humidity;BMP_temperature;BMP_pressure;BME280_temperature;BME280_humidity;BME280_pressure;Samples;Min_cycle;Max_cycle;Signal;HPM_P1;HPM_P2
2023/07/02 00:00:14;;;;;;;2.40;1.40;;;23.00;65.40;22.50;95887.00;;;;5013916;28;20250;-86
2023/07/02 00:02:42;;;;;;;1.53;1.43;;;23.00;65.50;22.40;95885.00;;;;5010507;28;20281;-86
2023/07/02 00:05:09;;;;;;;1.60;1.50;;;23.00;65.60;22.40;95876.00;;;;5004149;28;20217;-86
2023/07/02 00:07:37;;;;;;;1.37;1.27;;;22.90;65.50;22.40;95888.00;;;;5015476;28;20285;-86
2023/07/02 00:10:05;;;;;;;1.30;1.27;;;22.90;65.60;22.40;95883.00;;;;5009084;28;20222;-86
2023/07/02 00:12:34;;;;;;;1.70;1.17;;;22.90;65.80;22.30;95884.00;;;;5011995;28;20209;-86
2023/07/02 00:15:02;;;;;;;1.70;1.30;;;22.90;66.70;22.30;95885.00;;;;5012118;28;20230;-86
2023/07/02 00:17:30;;;;;;;1.63;1.53;;;22.90;65.90;22.30;95888.00;;;;5005326;28;20316;-86
2023/07/02 00:20:06;;;;;;;2.00;1.30;;;22.80;66.00;22.30;95882.00;;;;5009496;28;20224;-86
2023/07/02 00:22:36;;;;;;;1.27;1.17;;;22.90;66.10;22.30;95883.00;;;;5011543;28;20193;-86
2023/07/02 00:25:03;;;;;;;1.70;1.60;;;22.80;66.10;22.30;95891.00;;;;5014396;28;20288;-86
2023/07/02 00:27:31;;;;;;;1.53;1.43;;;22.80;66.30;22.30;95886.00;;;;5012396;28;20208;-86
2023/07/02 00:29:59;;;;;;;2.47;1.33;;;22.80;66.40;22.30;95891.00;;;;5010659;28;20224;-85
2023/07/02 00:32:27;;;;;;;1.37;1.27;;;22.80;66.60;22.30;95894.00;;;;5013135;28;20206;-86
2023/07/02 00:34:54;;;;;;;1.57;1.47;;;22.80;66.60;22.30;95893.00;;;;5005869;28;20222;-86
2023/07/02 00:37:21;;;;;;;1.90;1.50;;;22.80;66.70;22.30;95896.00;;;;5009630;28;20312;-86
2023/07/02 00:39:48;;;;;;;1.57;1.47;;;22.80;66.70;22.30;95893.00;;;;4997999;28;20222;-86
2023/07/02 00:42:16;;;;;;;1.50;1.40;;;22.80;66.80;22.30;95901.00;;;;5007900;28;20426;-86
2023/07/02 00:44:43;;;;;;;2.03;1.77;;;22.80;66.80;22.30;95903.00;;;;5006084;28;20205;-86
2023/07/02 00:47:12;;;;;;;2.00;1.43;;;22.80;66.70;22.30;95900.00;;;;5003144;28;20208;-87
2023/07/02 00:49:41;;;;;;;1.50;1.40;;;22.80;66.80;22.30;95901.00;;;;5011269;28;20308;-86
2023/07/02 00:52:08;;;;;;;1.47;1.37;;;22.80;66.80;22.20;95913.00;;;;5018569;28;20630;-87
2023/07/02 00:54:35;;;;;;;2.50;1.77;;;22.80;66.90;22.20;95916.00;;;;5017541;28;20313;-86
2023/07/02 00:57:03;;;;;;;1.40;1.30;;;22.80;66.90;22.20;95912.00;;;;5003448;28;20214;-86
2023/07/02 00:59:31;;;;;;;1.63;1.43;;;22.80;67.60;22.20;95912.00;;;;5014387;28;20833;-86
2023/07/02 01:01:58;;;;;;;1.60;1.50;;;22.70;66.90;22.20;95909.00;;;;5012183;28;20222;-86
2023/07/02 01:04:27;;;;;;;1.60;1.50;;;22.70;66.90;22.20;95912.00;;;;5013664;28;20198;-86
2023/07/02 01:06:57;;;;;;;1.60;1.50;;;22.70;67.00;22.20;95903.00;;;;5017085;28;20206;-86
2023/07/02 01:09:26;;;;;;;1.47;1.37;;;22.70;67.00;22.20;95898.00;;;;5016271;28;20218;-86
2023/07/02 01:11:58;;;;;;;1.30;1.13;;;22.70;67.00;22.20;95904.00;;;;5008638;28;20655;-87
2023/07/02 01:14:33;;;;;;;1.87;1.20;;;22.70;67.00;22.20;95901.00;;;;5000754;28;20708;-86
2023/07/02 01:17:03;;;;;;;2.40;1.37;;;22.70;67.10;22.20;95904.00;;;;5003411;28;20198;-87
2023/07/02 01:19:51;;;;;;;1.33;1.20;;;22.70;67.20;22.20;95902.00;;;;5002640;28;20372;-86
2023/07/02 01:22:19;;;;;;;1.77;1.10;;;22.70;67.40;22.20;95900.00;;;;5002496;28;20194;-86
2023/07/02 01:24:48;;;;;;;1.30;1.20;;;22.70;67.20;22.20;95906.00;;;;5007442;28;20285;-86
2023/07/02 01:27:17;;;;;;;1.40;1.30;;;22.70;67.30;22.10;95908.00;;;;5013996;28;20202;-86
2023/07/02 01:29:46;;;;;;;1.50;1.40;;;22.70;67.30;22.10;95904.00;;;;5005431;28;20230;-86
2023/07/02 01:32:14;;;;;;;1.90;1.37;;;22.70;67.50;22.10;95904.00;;;;5003561;28;20209;-86
2023/07/02 01:34:43;;;;;;;1.73;1.03;;;22.60;67.50;22.10;95889.00;;;;5008817;28;20214;-86
2023/07/02 01:37:13;;;;;;;1.50;1.40;;;22.60;67.50;22.10;95884.00;;;;5013782;28;20234;-86
2023/07/02 01:39:40;;;;;;;1.27;1.17;;;22.60;67.60;22.10;95887.00;;;;5005305;28;20220;-86
2023/07/02 01:42:12;;;;;;;1.77;1.20;;;22.60;67.60;22.10;95888.00;;;;4999004;28;20721;-86
2023/07/02 01:44:40;;;;;;;2.07;1.20;;;22.60;67.80;22.10;95893.00;;;;5015275;28;20224;-89
2023/07/02 01:47:07;;;;;;;1.23;1.10;;;22.60;67.80;22.10;95887.00;;;;5008266;28;20307;-87
2023/07/02 01:49:36;;;;;;;1.53;1.23;;;22.60;67.70;22.10;95897.00;;;;5008637;28;20223;-86
2023/07/02 01:52:04;;;;;;;1.40;1.30;;;22.60;67.70;22.10;95899.00;;;;5015605;28;20210;-87
2023/07/02 01:54:36;;;;;;;1.30;1.20;;;22.60;67.80;22.10;95911.00;;;;5012639;28;20220;-87
2023/07/02 01:57:05;;;;;;;1.93;1.00;;;22.60;68.00;22.10;95908.00;;;;5016585;28;20306;-87
2023/07/02 01:59:32;;;;;;;1.40;1.30;;;22.60;67.90;22.10;95915.00;;;;5007007;28;20232;-86
2023/07/02 02:02:00;;;;;;;7.33;1.10;;;22.60;68.00;22.10;95910.00;;;;5009757;28;20206;-86
2023/07/02 02:04:27;;;;;;;1.27;1.17;;;22.60;68.00;22.10;95909.00;;;;4995396;28;20677;-87
2023/07/02 02:06:55;;;;;;;1.40;1.00;;;22.60;68.00;22.10;95909.00;;;;4998895;28;20213;-86
2023/07/02 02:09:22;;;;;;;1.20;0.93;;;22.60;68.10;22.10;95914.00;;;;4997302;28;20246;-89
2023/07/02 02:11:52;;;;;;;1.07;1.03;;;22.60;68.10;22.10;95905.00;;;;4995800;28;20201;-87
2023/07/02 02:14:19;;;;;;;1.00;0.90;;;22.60;68.30;22.10;95910.00;;;;5001996;28;20218;-87
2023/07/02 02:16:46;;;;;;;1.47;0.93;;;22.60;68.20;22.10;95909.00;;;;5000218;28;20209;-86
2023/07/02 02:19:14;;;;;;;1.00;0.90;;;22.60;68.20;22.10;95912.00;;;;5001288;28;20226;-87
2023/07/02 02:21:41;;;;;;;1.30;1.10;;;22.60;68.30;22.10;95916.00;;;;4998749;28;20630;-86
2023/07/02 02:24:09;;;;;;;1.40;1.10;;;22.60;68.30;22.10;95906.00;;;;5016069;28;20213;-87
2023/07/02 02:26:36;;;;;;;1.40;1.30;;;22.60;68.30;22.10;95914.00;;;;5013809;28;20676;-87
2023/07/02 02:29:08;;;;;;;0.73;0.73;;;22.60;68.40;22.10;95907.00;;;;5002964;28;20763;-86
2023/07/02 02:31:35;;;;;;;0.90;0.90;;;22.60;68.50;22.10;95910.00;;;;5015067;28;20280;-86
2023/07/02 02:34:02;;;;;;;0.87;0.87;;;22.60;68.40;22.10;95908.00;;;;5015520;28;20203;-87
2023/07/02 02:36:29;;;;;;;0.90;0.90;;;22.60;68.50;22.10;95914.00;;;;5014905;28;20205;-86
2023/07/02 02:38:57;;;;;;;0.90;0.87;;;22.60;69.20;22.10;95911.00;;;;5014318;28;20214;-87
2023/07/02 02:41:24;;;;;;;1.13;0.87;;;22.60;68.50;22.10;95925.00;;;;5006869;28;20210;-86
2023/07/02 02:43:51;;;;;;;0.83;0.83;;;22.60;68.60;22.10;95921.00;;;;5003899;28;20187;-85
2023/07/02 02:46:24;;;;;;;1.60;0.97;;;22.60;68.60;22.20;95919.00;;;;5005480;28;20226;-86
2023/07/02 02:48:52;;;;;;;1.10;1.00;;;22.70;68.80;22.20;95939.00;;;;5002195;28;20215;-86
2023/07/02 02:51:19;;;;;;;0.80;0.80;;;22.70;68.70;22.20;95951.00;;;;5004703;28;20233;-84
2023/07/02 02:53:47;;;;;;;0.90;0.90;;;22.70;69.70;22.20;95958.00;;;;5004622;28;20667;-84
2023/07/02 02:56:14;;;;;;;1.30;1.20;;;22.70;69.00;22.10;95956.00;;;;5004484;28;20235;-85
2023/07/02 02:58:42;;;;;;;1.03;0.90;;;22.70;69.40;22.10;95955.00;;;;5003725;28;20269;-84
2023/07/02 03:01:10;;;;;;;1.13;1.03;;;22.70;69.20;22.00;95935.00;;;;5019335;28;20197;-85
2023/07/02 03:03:45;;;;;;;0.80;0.80;;;22.60;69.60;21.90;95933.00;;;;5002564;28;20214;-84
2023/07/02 03:06:14;;;;;;;1.10;1.00;;;22.60;68.60;21.90;95935.00;;;;5007930;28;20233;-84
2023/07/02 03:08:42;;;;;;;1.00;0.90;;;22.50;68.40;21.80;95941.00;;;;5008388;28;20230;-85
2023/07/02 03:11:09;;;;;;;1.23;1.00;;;22.40;68.60;21.80;95942.00;;;;5002451;28;20191;-85
2023/07/02 03:13:36;;;;;;;1.07;0.90;;;22.40;68.70;21.70;95952.00;;;;5004323;28;20205;-84
2023/07/02 03:16:03;;;;;;;0.97;0.97;;;22.30;68.60;21.70;95964.00;;;;5021020;28;20225;-85
2023/07/02 03:18:30;;;;;;;1.57;0.97;;;22.30;68.40;21.60;95955.00;;;;5012371;28;20215;-84
2023/07/02 03:21:00;;;;;;;1.07;1.07;;;22.20;68.10;21.50;95951.00;;;;5002891;28;20228;-85
2023/07/02 03:23:27;;;;;;;2.03;1.17;;;22.20;68.50;21.50;95957.00;;;;5018496;28;20212;-86
2023/07/02 03:25:54;;;;;;;1.63;1.10;;;22.10;68.70;21.50;95961.00;;;;5014971;28;20214;-85
2023/07/02 03:28:21;;;;;;;1.10;1.00;;;22.10;68.80;21.40;95971.00;;;;5008267;28;20230;-85
2023/07/02 03:30:49;;;;;;;1.87;1.00;;;22.10;68.80;21.40;95959.00;;;;5008674;28;20207;-84
2023/07/02 03:33:16;;;;;;;1.53;0.93;;;22.00;69.60;21.30;95959.00;;;;5015554;28;20607;-85
2023/07/02 03:35:43;;;;;;;1.10;1.00;;;22.00;69.00;21.30;95965.00;;;;5008796;28;20278;-85
2023/07/02 03:38:12;;;;;;;1.30;1.20;;;21.90;68.90;21.20;95971.00;;;;5007940;28;20198;-85
2023/07/02 03:40:41;;;;;;;1.13;1.03;;;21.90;69.00;21.20;95975.00;;;;5012948;28;20209;-85
2023/07/02 03:43:08;;;;;;;1.30;1.20;;;21.80;68.90;21.20;95973.00;;;;5015374;28;20229;-85
2023/07/02 03:45:36;;;;;;;1.03;1.03;;;21.80;68.90;21.10;95974.00;;;;5012491;28;20265;-86
2023/07/02 03:48:04;;;;;;;1.20;1.10;;;21.80;69.00;21.10;95988.00;;;;5014477;28;20221;-85
2023/07/02 03:50:31;;;;;;;1.20;1.10;;;21.70;69.00;21.10;95975.00;;;;5015531;28;20205;-85
2023/07/02 03:52:59;;;;;;;1.03;1.03;;;21.70;68.90;21.10;95977.00;;;;5017433;28;20288;-86
2023/07/02 03:55:28;;;;;;;1.07;1.00;;;21.70;69.00;21.00;95987.00;;;;5006851;28;20225;-85
2023/07/02 03:57:55;;;;;;;1.53;1.00;;;21.70;69.10;21.00;95986.00;;;;5009539;28;20205;-85
2023/07/02 04:00:22;;;;;;;1.17;0.97;;;21.70;68.90;21.00;95987.00;;;;5017888;28;20620;-87
2023/07/02 04:02:49;;;;;;;1.93;0.93;;;21.60;68.90;21.00;95983.00;;;;5011289;28;20233;-85
2023/07/02 04:05:17;;;;;;;2.73;1.13;;;21.60;69.20;20.90;95991.00;;;;5022940;28;20208;-85
2023/07/02 04:07:44;;;;;;;1.10;1.00;;;21.60;69.40;20.90;95991.00;;;;5019178;28;20218;-85
2023/07/02 04:10:11;;;;;;;3.43;1.00;;;21.60;69.50;20.90;95995.00;;;;5022176;28;20300;-85
2023/07/02 04:12:41;;;;;;;1.30;1.20;;;21.60;69.60;20.90;95988.00;;;;5027260;28;20239;-85
2023/07/02 04:15:10;;;;;;;1.00;1.00;;;21.60;69.70;20.90;95985.00;;;;5025944;28;20222;-86
2023/07/02 04:17:37;;;;;;;1.07;0.90;;;21.60;69.80;20.90;95988.00;;;;5024122;28;20206;-85
2023/07/02 04:20:07;;;;;;;2.07;1.00;;;21.60;69.70;20.90;95992.00;;;;5010298;28;20283;-83
2023/07/02 04:22:34;;;;;;;1.53;1.17;;;21.60;69.70;20.90;95994.00;;;;4996221;28;20233;-83
2023/07/02 04:25:01;;;;;;;1.67;1.13;;;21.60;69.80;20.90;95989.00;;;;5008689;28;20198;-83
2023/07/02 04:27:29;;;;;;;1.17;1.00;;;21.60;69.90;21.00;95997.00;;;;5015681;28;20293;-82
2023/07/02 04:29:57;;;;;;;1.00;1.00;;;21.60;69.80;21.00;96000.00;;;;5000386;28;20219;-82
2023/07/02 04:32:24;;;;;;;1.23;1.07;;;21.60;69.70;21.00;95998.00;;;;5012405;28;20198;-82
2023/07/02 04:34:52;;;;;;;1.00;1.00;;;21.70;69.80;21.00;96006.00;;;;5012762;28;20312;-83
2023/07/02 04:37:19;;;;;;;1.17;1.10;;;21.70;69.80;21.00;96007.00;;;;5009752;28;20206;-83
2023/07/02 04:39:46;;;;;;;1.10;1.00;;;21.70;69.70;21.00;96005.00;;;;5005310;28;20216;-83
2023/07/02 04:42:14;;;;;;;1.13;1.10;;;21.70;69.70;21.00;96014.00;;;;5008591;28;20806;-83
2023/07/02 04:44:43;;;;;;;1.30;1.20;;;21.70;69.60;21.00;96012.00;;;;5010624;28;20221;-83
2023/07/02 04:47:12;;;;;;;1.23;1.10;;;21.70;69.70;21.10;96020.00;;;;5015303;28;20233;-83
2023/07/02 04:49:39;;;;;;;1.07;0.97;;;21.70;69.80;21.10;96014.00;;;;5003344;28;20233;-83
2023/07/02 04:52:07;;;;;;;1.03;0.97;;;21.70;69.70;21.10;96014.00;;;;5010469;28;20193;-83
2023/07/02 04:54:34;;;;;;;1.90;1.10;;;21.80;69.80;21.10;96018.00;;;;4997095;28;20207;-83
2023/07/02 04:57:01;;;;;;;1.73;1.10;;;21.80;69.90;21.10;96018.00;;;;5005294;28;20202;-83
2023/07/02 04:59:30;;;;;;;1.27;1.17;;;21.80;69.60;21.20;96019.00;;;;5010969;28;20729;-83
2023/07/02 05:01:57;;;;;;;1.03;1.00;;;21.80;69.30;21.10;96012.00;;;;5008834;28;20204;-83
2023/07/02 05:04:25;;;;;;;1.17;1.07;;;21.80;69.10;21.10;96018.00;;;;4996022;28;20560;-83
2023/07/02 05:06:52;;;;;;;1.93;1.10;;;21.80;69.00;21.10;96023.00;;;;5007955;28;20602;-83
2023/07/02 05:09:20;;;;;;;0.83;0.83;;;21.80;68.90;21.10;96020.00;;;;5003415;28;20221;-83
2023/07/02 05:11:47;;;;;;;1.40;1.30;;;21.80;68.90;21.10;96027.00;;;;5010640;28;20194;-84
2023/07/02 05:14:14;;;;;;;1.40;1.17;;;21.80;69.10;21.10;96030.00;;;;4993356;28;20198;-84
2023/07/02 05:16:41;;;;;;;1.00;1.00;;;21.80;69.20;21.10;96035.00;;;;5009853;28;20221;-83
2023/07/02 05:19:08;;;;;;;1.53;1.03;;;21.80;69.10;21.10;96037.00;;;;5005804;28;20219;-83
2023/07/02 05:21:37;;;;;;;1.67;1.57;;;21.80;69.80;21.10;96040.00;;;;4995534;28;20677;-84
2023/07/02 05:24:05;;;;;;;1.20;1.10;;;21.80;69.00;21.10;96043.00;;;;5002731;28;20204;-84
2023/07/02 05:26:33;;;;;;;2.17;1.20;;;21.80;69.00;21.10;96052.00;;;;5001447;28;20214;-83
2023/07/02 05:29:01;;;;;;;2.37;1.30;;;21.70;68.90;21.10;96050.00;;;;4993340;28;20225;-84
2023/07/02 05:31:28;;;;;;;1.50;1.40;;;21.70;69.00;21.10;96059.00;;;;5002141;28;20309;-84
2023/07/02 05:33:55;;;;;;;1.40;1.30;;;21.70;68.80;21.10;96055.00;;;;5004214;28;20193;-83
2023/07/02 05:36:23;;;;;;;1.50;1.27;;;21.70;69.00;21.10;96064.00;;;;5008202;28;20276;-83
2023/07/02 05:38:51;;;;;;;2.17;1.10;;;21.70;69.10;21.10;96070.00;;;;5007725;28;20218;-84
2023/07/02 05:41:22;;;;;;;1.73;1.20;;;21.70;69.20;21.20;96064.00;;;;4991946;28;20222;-84
2023/07/02 05:43:49;;;;;;;1.30;1.20;;;21.80;69.50;21.20;96068.00;;;;4991438;28;20191;-83
2023/07/02 05:46:17;;;;;;;1.77;1.47;;;21.70;69.30;21.20;96062.00;;;;4991174;28;20225;-83
2023/07/02 05:48:44;;;;;;;1.17;1.10;;;21.80;69.10;21.20;96062.00;;;;5003502;28;20213;-83
2023/07/02 05:51:11;;;;;;;1.20;1.03;;;21.80;69.10;21.20;96065.00;;;;5014201;28;20249;-83
2023/07/02 05:53:39;;;;;;;2.10;1.30;;;21.80;69.30;21.30;96062.00;;;;5017540;28;20265;-83
2023/07/02 05:56:07;;;;;;;1.23;1.13;;;21.80;69.30;21.30;96054.00;;;;5001145;28;20221;-83
2023/07/02 05:58:35;;;;;;;1.60;1.50;;;21.80;69.40;21.30;96062.00;;;;5003639;28;20222;-82
2023/07/02 06:01:02;;;;;;;1.80;1.00;;;21.90;69.50;21.40;96057.00;;;;5007223;28;20211;-84
2023/07/02 06:03:29;;;;;;;1.20;1.07;;;21.90;69.60;21.40;96065.00;;;;5001206;28;20316;-84
2023/07/02 06:05:56;;;;;;;1.40;1.30;;;21.90;69.30;21.40;96066.00;;;;5005843;28;20206;-84
2023/07/02 06:08:23;;;;;;;1.47;1.30;;;22.00;69.10;21.50;96067.00;;;;4990737;28;20596;-83
2023/07/02 06:10:51;;;;;;;1.53;1.23;;;22.00;69.00;21.50;96068.00;;;;4998868;28;20194;-83
2023/07/02 06:13:20;;;;;;;2.27;1.27;;;22.00;69.00;21.50;96069.00;;;;5005051;28;20202;-83
2023/07/02 06:15:47;;;;;;;1.67;1.40;;;22.10;68.80;21.50;96066.00;;;;4993313;28;20224;-83
2023/07/02 06:18:17;;;;;;;1.40;1.30;;;22.10;68.80;21.50;96077.00;;;;4989731;28;20258;-82
2023/07/02 06:20:44;;;;;;;1.47;1.10;;;22.10;68.80;21.50;96077.00;;;;5011171;28;20194;-83
2023/07/02 06:23:11;;;;;;;2.57;1.00;;;22.10;68.70;21.50;96078.00;;;;5011916;28;20202;-83
2023/07/02 06:25:38;;;;;;;2.00;1.30;;;22.10;68.40;21.50;96092.00;;;;5001649;28;20222;-83
2023/07/02 06:28:06;;;;;;;1.60;1.20;;;22.10;68.40;21.50;96096.00;;;;5006090;28;20236;-83
2023/07/02 06:30:34;;;;;;;1.43;1.20;;;22.10;68.50;21.50;96100.00;;;;5003684;28;20686;-82
2023/07/02 06:33:03;;;;;;;1.37;1.27;;;22.10;68.50;21.50;96110.00;;;;5003543;28;20207;-83
2023/07/02 06:35:30;;;;;;;1.30;1.20;;;22.10;68.30;21.50;96108.00;;;;5002402;28;20313;-83
2023/07/02 06:37:58;;;;;;;1.53;1.37;;;22.10;68.50;21.50;96105.00;;;;4977738;28;20202;-83
2023/07/02 06:40:25;;;;;;;2.47;1.40;;;22.10;68.40;21.50;96102.00;;;;4999628;28;20190;-85
2023/07/02 06:42:52;;;;;;;1.60;1.13;;;22.10;68.60;21.50;96100.00;;;;5000713;28;20214;-84
2023/07/02 06:45:19;;;;;;;1.63;1.40;;;22.10;68.90;21.50;96098.00;;;;4978270;28;20198;-83
2023/07/02 06:47:48;;;;;;;1.97;1.20;;;22.10;69.00;21.50;96096.00;;;;4997209;28;20190;-84
2023/07/02 06:50:15;;;;;;;1.43;1.33;;;22.10;69.00;21.50;96097.00;;;;5014518;28;20218;-83
2023/07/02 06:52:42;;;;;;;1.50;1.40;;;22.10;70.00;21.60;96103.00;;;;5014671;28;20203;-83
2023/07/02 06:55:10;;;;;;;1.60;1.40;;;22.10;69.40;21.60;96101.00;;;;5014802;28;20195;-84
2023/07/02 06:57:44;;;;;;;1.50;1.10;;;22.20;69.50;21.60;96107.00;;;;5004184;28;20227;-84
2023/07/02 07:00:12;;;;;;;1.23;1.13;;;22.20;69.40;21.60;96111.00;;;;4998560;28;20242;-84
2023/07/02 07:02:40;;;;;;;1.23;1.13;;;22.20;69.20;21.60;96119.00;;;;5002795;28;20211;-84
2023/07/02 07:05:09;;;;;;;1.67;1.57;;;22.20;69.10;21.60;96118.00;;;;4987146;28;20257;-84
2023/07/02 07:07:36;;;;;;;1.60;1.50;;;22.20;69.00;21.60;96112.00;;;;4994945;28;20222;-84
2023/07/02 07:10:05;;;;;;;1.50;1.40;;;22.20;69.00;21.60;96120.00;;;;5002097;28;20227;-84
2023/07/02 07:12:32;;;;;;;1.33;1.10;;;22.20;69.10;21.60;96116.00;;;;5012523;28;20206;-84
2023/07/02 07:14:59;;;;;;;2.77;1.43;;;22.30;69.20;21.70;96118.00;;;;5013294;28;20220;-83
2023/07/02 07:17:26;;;;;;;2.20;2.03;;;22.30;69.10;21.70;96119.00;;;;5004586;28;20301;-84
2023/07/02 07:19:53;;;;;;;2.27;1.83;;;22.30;69.30;21.70;96125.00;;;;5004064;28;20707;-84
2023/07/02 07:22:22;;;;;;;2.27;1.13;;;22.30;68.60;21.70;96134.00;;;;4998613;28;20195;-84
2023/07/02 07:24:49;;;;;;;1.80;1.30;;;22.30;67.90;21.70;96130.00;;;;5006271;28;20207;-85
2023/07/02 07:27:16;;;;;;;1.40;1.30;;;22.30;67.70;21.60;96130.00;;;;5003982;28;20237;-83
2023/07/02 07:29:43;;;;;;;2.43;1.50;;;22.30;67.60;21.70;96134.00;;;;4998367;28;20297;-83
2023/07/02 07:32:10;;;;;;;1.80;1.53;;;22.30;67.80;21.60;96137.00;;;;5002895;28;20226;-82
2023/07/02 07:34:38;;;;;;;1.40;1.30;;;22.30;67.90;21.60;96141.00;;;;5018578;28;20249;-84
2023/07/02 07:37:06;;;;;;;1.37;1.20;;;22.30;67.80;21.60;96142.00;;;;5001377;28;20227;-84
2023/07/02 07:39:37;;;;;;;1.20;1.10;;;22.30;67.20;21.60;96141.00;;;;5004050;28;20616;-84
2023/07/02 07:42:05;;;;;;;3.93;1.30;;;22.20;67.10;21.50;96141.00;;;;4995108;28;20213;-84
2023/07/02 07:44:33;;;;;;;1.83;1.30;;;22.20;67.30;21.50;96138.00;;;;4994900;28;20290;-82
2023/07/02 07:47:00;;;;;;;2.00;1.23;;;22.20;67.70;21.50;96139.00;;;;5011314;28;20210;-83
2023/07/02 07:49:27;;;;;;;1.73;1.60;;;22.20;67.60;21.50;96142.00;;;;5007286;28;20238;-82
2023/07/02 07:51:54;;;;;;;1.67;1.50;;;22.10;67.90;21.50;96143.00;;;;5000496;28;20289;-83
2023/07/02 07:54:21;;;;;;;1.53;1.23;;;22.10;68.20;21.40;96141.00;;;;5014245;28;20194;-82
2023/07/02 07:56:50;;;;;;;1.80;1.70;;;22.10;68.00;21.40;96149.00;;;;4994861;28;20214;-83
2023/07/02 07:59:18;;;;;;;1.87;1.47;;;22.10;68.00;21.40;96143.00;;;;4994922;28;20599;-82
2023/07/02 08:01:46;;;;;;;1.87;1.67;;;22.10;68.40;21.30;96155.00;;;;4994620;28;20197;-82
2023/07/02 08:04:13;;;;;;;2.30;1.80;;;22.00;68.40;21.30;96148.00;;;;5005405;28;20199;-83
2023/07/02 08:06:40;;;;;;;1.77;1.47;;;22.00;68.40;21.20;96160.00;;;;5003649;28;20206;-82
2023/07/02 08:09:08;;;;;;;2.57;1.60;;;22.00;68.40;21.20;96168.00;;;;4990434;28;20236;-83
2023/07/02 08:11:36;;;;;;;2.73;1.70;;;21.90;68.30;21.10;96178.00;;;;5011217;28;20574;-83
2023/07/02 08:14:04;;;;;;;1.97;1.87;;;21.90;68.30;21.00;96175.00;;;;5007072;28;20202;-83
2023/07/02 08:16:32;;;;;;;2.50;2.03;;;21.80;68.40;21.00;96164.00;;;;5009995;28;20244;-82
2023/07/02 08:18:59;;;;;;;2.47;2.00;;;21.70;68.20;20.90;96180.00;;;;5015850;28;20222;-82
2023/07/02 08:21:26;;;;;;;3.10;2.07;;;21.60;68.60;20.80;96166.00;;;;5010661;28;20285;-83
2023/07/02 08:23:53;;;;;;;2.17;1.57;;;21.60;69.10;20.80;96162.00;;;;5006724;28;20202;-84
2023/07/02 08:26:21;;;;;;;2.70;1.83;;;21.60;69.20;20.70;96158.00;;;;5005050;28;20198;-83
2023/07/02 08:28:49;;;;;;;1.63;1.53;;;21.50;69.60;20.70;96163.00;;;;5008766;28;20303;-83
2023/07/02 08:31:18;;;;;;;1.80;1.70;;;21.50;69.80;20.70;96166.00;;;;5009296;28;20576;-82
2023/07/02 08:33:45;;;;;;;2.50;1.77;;;21.40;70.00;20.70;96175.00;;;;5005374;28;20190;-83
2023/07/02 08:36:13;;;;;;;1.73;1.53;;;21.40;70.10;20.70;96175.00;;;;5003076;28;20225;-82
2023/07/02 08:38:43;;;;;;;3.23;1.93;;;21.40;70.30;20.70;96176.00;;;;4998681;28;20225;-83
2023/07/02 08:41:10;;;;;;;3.10;1.70;;;21.40;70.50;20.70;96175.00;;;;5007291;28;20202;-82
2023/07/02 08:43:40;;;;;;;2.63;2.40;;;21.40;70.60;20.70;96180.00;;;;5010110;28;20589;-81
2023/07/02 08:46:08;;;;;;;2.20;1.90;;;21.40;70.60;20.80;96178.00;;;;5010154;28;20706;-82
2023/07/02 08:48:37;;;;;;;1.97;1.70;;;21.40;70.70;20.80;96172.00;;;;5009679;28;20309;-83
2023/07/02 08:51:04;;;;;;;2.70;2.00;;;21.50;70.60;20.90;96172.00;;;;4998028;28;20205;-83
2023/07/02 08:53:33;;;;;;;2.20;2.00;;;21.50;70.30;20.90;96176.00;;;;5010491;28;20198;-83
2023/07/02 08:56:01;;;;;;;2.10;1.83;;;21.60;70.30;21.00;96166.00;;;;5004874;28;20206;-82
2023/07/02 08:58:28;;;;;;;2.17;1.97;;;21.60;70.50;21.00;96175.00;;;;4992493;28;20308;-82
2023/07/02 09:01:09;;;;;;;2.30;2.10;;;21.60;70.90;21.10;96183.00;;;;4999010;28;20212;-82
2023/07/02 09:03:39;;;;;;;2.10;1.90;;;21.70;70.80;21.20;96188.00;;;;5007979;28;20658;-81
2023/07/02 09:06:07;;;;;;;2.30;2.07;;;21.70;70.40;21.30;96185.00;;;;4999047;28;20210;-83
2023/07/02 09:08:35;;;;;;;2.77;2.20;;;21.80;70.40;21.30;96184.00;;;;4995529;28;20214;-82
2023/07/02 09:11:10;;;;;;;2.63;2.10;;;21.90;70.50;21.40;96179.00;;;;5002035;28;20203;-82
2023/07/02 09:13:48;;;;;;;2.40;1.97;;;21.90;70.20;21.50;96171.00;;;;5005012;28;20194;-83
2023/07/02 09:16:26;;;;;;;3.10;2.20;;;22.00;70.60;21.60;96178.00;;;;4994470;28;20580;-83
2023/07/02 09:19:05;;;;;;;3.13;1.90;;;22.10;71.10;21.70;96178.00;;;;4999239;28;20218;-83
2023/07/02 09:21:45;;;;;;;2.40;2.20;;;22.20;71.20;21.80;96179.00;;;;5010318;28;20208;-83
2023/07/02 09:24:22;;;;;;;2.40;2.20;;;22.30;70.90;21.90;96174.00;;;;4998891;28;20236;-83
2023/07/02 09:26:51;;;;;;;2.73;1.90;;;22.40;71.00;22.00;96180.00;;;;5006827;28;20202;-83
2023/07/02 09:29:23;;;;;;;3.43;2.00;;;22.50;71.00;22.10;96178.00;;;;5000935;28;20210;-83
2023/07/02 09:31:50;;;;;;;2.87;2.27;;;22.60;70.80;22.20;96175.00;;;;4996482;28;20214;-84
2023/07/02 09:34:19;;;;;;;2.50;2.30;;;22.70;70.10;22.30;96180.00;;;;4992366;28;20258;-84
2023/07/02 09:36:46;;;;;;;2.40;2.20;;;22.80;69.40;22.40;96174.00;;;;4996214;28;20221;-84
2023/07/02 09:39:15;;;;;;;3.17;2.80;;;22.90;69.30;22.50;96185.00;;;;4998576;28;20217;-84
2023/07/02 09:41:44;;;;;;;3.90;2.67;;;23.00;68.90;22.50;96177.00;;;;4994999;28;20226;-84
2023/07/02 09:44:12;;;;;;;3.17;2.43;;;23.00;68.40;22.50;96176.00;;;;5007169;28;20205;-83
2023/07/02 09:46:50;;;;;;;2.23;1.93;;;23.10;67.80;22.60;96186.00;;;;5005196;28;20235;-83
2023/07/02 09:49:23;;;;;;;1.83;1.60;;;23.10;67.60;22.60;96175.00;;;;5002636;28;20217;-83
2023/07/02 09:51:51;;;;;;;1.83;1.73;;;23.10;67.80;22.60;96174.00;;;;4998546;28;20206;-83
2023/07/02 09:54:20;;;;;;;2.37;1.40;;;23.10;68.10;22.70;96174.00;;;;5000656;28;20199;-84
2023/07/02 09:56:47;;;;;;;2.63;1.33;;;23.20;68.10;22.70;96178.00;;;;5005183;28;20225;-84
2023/07/02 09:59:15;;;;;;;2.30;1.57;;;23.20;67.90;22.70;96179.00;;;;5004390;28;20280;-83
2023/07/02 10:01:42;;;;;;;1.60;1.50;;;23.30;68.00;22.80;96178.00;;;;5002059;28;20278;-84
2023/07/02 10:04:14;;;;;;;1.80;1.57;;;23.30;67.70;22.80;96170.00;;;;4987460;28;20221;-84
2023/07/02 10:06:52;;;;;;;2.30;1.67;;;23.40;67.80;22.90;96181.00;;;;4999896;28;20681;-83
2023/07/02 10:09:35;;;;;;;2.20;2.00;;;23.40;67.50;22.90;96171.00;;;;5007553;28;20226;-88
2023/07/02 10:12:02;;;;;;;2.47;2.00;;;23.40;67.60;23.00;96178.00;;;;5009793;28;20202;-87
2023/07/02 10:14:43;;;;;;;2.27;2.07;;;23.50;67.50;23.00;96169.00;;;;4990473;28;20200;-88
2023/07/02 10:17:10;;;;;;;2.17;2.03;;;23.50;66.10;23.00;96181.00;;;;5018791;28;20239;-88
2023/07/02 10:19:50;;;;;;;2.50;1.97;;;23.50;66.40;23.10;96172.00;;;;5015067;28;20221;-88
2023/07/02 10:22:20;;;;;;;2.30;2.10;;;23.60;66.60;23.10;96174.00;;;;5015843;28;20213;-87
2023/07/02 10:24:59;;;;;;;2.30;2.10;;;23.60;66.60;23.20;96178.00;;;;5013209;28;20264;-87
2023/07/02 10:27:38;;;;;;;2.47;2.07;;;23.10;65.60;23.20;96172.00;;;;5005553;28;20211;-88
2023/07/02 10:30:07;;;;;;;2.97;2.40;;;23.70;66.40;23.30;96167.00;;;;5003474;28;20222;-88
2023/07/02 10:33:08;;;;;;;3.80;2.70;;;23.70;66.10;23.30;96172.00;;;;5004180;28;20720;-89
2023/07/02 10:35:36;;;;;;;2.97;2.40;;;23.80;66.50;23.40;96165.00;;;;5004717;28;20627;-88
2023/07/02 10:38:07;;;;;;;2.40;1.90;;;23.90;66.60;23.50;96166.00;;;;5012980;28;20235;-88
2023/07/02 10:40:34;;;;;;;2.60;2.37;;;24.00;67.30;23.70;96168.00;;;;4998701;28;20290;-88
2023/07/02 10:43:02;;;;;;;3.30;2.93;;;24.10;67.10;23.90;96162.00;;;;5007782;28;20222;-84
2023/07/02 10:45:37;;;;;;;3.53;2.20;;;24.20;67.30;24.00;96164.00;;;;5004149;28;20284;-83
2023/07/02 10:48:06;;;;;;;3.17;2.50;;;24.40;66.60;24.20;96165.00;;;;5003050;28;20832;-84
2023/07/02 10:50:33;;;;;;;3.87;2.90;;;24.60;65.90;24.30;96161.00;;;;5006401;28;20202;-82
2023/07/02 10:53:00;;;;;;;4.23;3.07;;;24.70;66.10;24.40;96152.00;;;;5007990;28;20290;-82
2023/07/02 10:55:31;;;;;;;3.83;3.07;;;24.80;66.10;24.50;96156.00;;;;5006538;28;20732;-82
2023/07/02 10:58:07;;;;;;;2.77;2.47;;;24.90;65.00;24.70;96161.00;;;;5015176;28;20626;-82
2023/07/02 11:00:45;;;;;;;3.07;2.70;;;25.10;65.10;24.80;96159.00;;;;5016069;28;20193;-82